Cleveland, OH

2:18 PM EDT on August 30, 2015 (GMT -0400)
APRSWXNET | | Change Station
CLOSE
Current Station
Personal Weather Station
Location: Cleveland, OH
Elevation: 690 ft
Nearby Weather Stations

Elev 690 ft 41.47 °N, 81.65 °W | Updated 30 minutes ago

Partly Cloudy
Partly Cloudy
78 °F
Feels Like 80 °F
N
0
Wind Variable Wind from NE
Gusts 0.0 mph

Today
High -- | Low -- °F
--% Chance of Precip.
Yesterday
High -- | Low -- °F
Precip. -- in
6:50 AM 8:03 PM
Full, 99% visible
Pressure 30.06 in
Visibility 9.0 miles
Clouds Few 3100 ft
Heat Index 80 °F
Dew Point 69 °F
Humidity 74%
Rainfall in
Snow Depth Not available.
UV 8 out of 12
Pollen 9.80 out of 12
Air Quality Not available.
Flu Activity Not available.
METAR KBKL 301753Z 33004KT 9SM FEW031 26/21 A3007 RMK AO2 SLP177 60005 T02610211 10267 20211 58012
Pressure 30.06 in
Visibility 9.0 miles
Clouds Few 3100 ft
Heat Index 80 °F
Dew Point 69 °F
Humidity 74%
Rainfall in
Snow Depth Not available.
UV 8 out of 12
Pollen 9.80 out of 12
Air Quality Not available.
Flu Activity Not available.
METAR KBKL 301753Z 33004KT 9SM FEW031 26/21 A3007 RMK AO2 SLP177 60005 T02610211 10267 20211 58012

10-Day Weather Forecast

×

Almanac

Astronomy

Aug. 30, 2015 Rise Set
Actual Time
Civil Twilight
Nautical Twilight
Astronomical Twilight
Moon
Length of Visible Light
Length of Day
Tomorrow will be .
, % of the Moon is Illuminated

Today's Extremes

State Highs State Lows

Community

WunderPhotos

Upload Photos

1,851,027 photos uploaded!

WunderBlogs® & News

Nearby

Air Quality

  Air Quality AQ Index Pollutant
Not available.

Snow Depth

Station Depth Elevation

Earthquake Activity

City Distance Mag. Time & Date
Minimum magnitude displayed is 2.5.

Coastal Water Temperatures

Place Temperature

Stations

Nearby Weather Stations

Station Location Temp. Windchill Dew Point Humidity Wind Precip. Elev Updated Type